LICT/TPS METAR and TAF weather

Enter ICAO airport designator
Station Type Date Time Source
LICT METAR 2022/06/28 14:55 UTC NOAA

LICT 281455Z 33010KT CAVOK 29/26 Q1014


Station Type Date Time Source
LICT Decoded METAR 2022/06/28 14:55 UTC NOAA

Trapani / Birgi, Italy (LICT) 37-55N 012-30E 14M
Jun 28, 2022 - 10:55 AM EDT / 2022.06.28 1455 UTC
Wind: from the NNW (330 degrees) at 12 MPH (10 KT):0
Visibility: greater than 7 mile(s):0
Temperature: 84 F (29 C)
Dew Point: 78 F (26 C)
Relative Humidity: 83%
Pressure (altimeter): 29.94 in. Hg (1014 hPa)
ob: LICT 281455Z 33010KT CAVOK 29/26 Q1014
cycle: 15

Station Type Date Time Source
LICT TAF 2021/10/13 09:24 UTC NOAA

TAF TAF LICT 130800Z 1309/1321 26012KT 9999 SCT025 SCT040
TEMPO 1309/1313 SHRA FEW018CB BKN020
TEMPO 1313/1321 5000 TSRA BKN012 FEW018CB

Example: see airport list